createdAt,value
2023-04-02T04:47:41.160Z,0.95
2023-04-02T04:50:14.180Z,0.95
2023-04-02T04:52:44.389Z,1.10
2023-04-02T04:55:28.895Z,1.20
2023-04-02T04:58:01.644Z,0.82
2023-04-02T05:00:38.480Z,1.15
2023-04-02T05:03:17.177Z,0.85
2023-04-02T05:05:46.767Z,1.10
2023-04-02T05:08:20.370Z,0.98
2023-04-02T05:10:53.022Z,1.02
2023-04-02T05:13:26.106Z,0.88
2023-04-02T05:16:02.829Z,0.90
2023-04-02T05:18:37.276Z,0.90
2023-04-02T05:21:09.130Z,1.05
2023-04-02T05:23:44.100Z,1.40
2023-04-02T05:26:17.458Z,1.00
2023-04-02T05:28:52.135Z,0.90
2023-04-02T05:31:23.370Z,1.00
2023-04-02T05:33:54.925Z,0.90
2023-04-02T05:36:25.783Z,1.00
2023-04-02T05:38:56.323Z,1.20
2023-04-02T05:41:28.260Z,1.30
2023-04-02T05:44:04.760Z,0.90
2023-04-02T05:46:37.910Z,1.00
2023-04-02T05:49:16.480Z,1.10
2023-04-02T05:51:50.295Z,0.82
2023-04-02T05:54:24.150Z,0.90
2023-04-02T05:56:56.339Z,0.90
2023-04-02T05:59:28.296Z,0.85
2023-04-02T06:02:03.284Z,0.60
2023-04-02T06:04:38.625Z,0.90
2023-04-02T06:07:11.296Z,0.80
2023-04-02T06:09:44.613Z,0.80
2023-04-02T06:12:20.499Z,0.95
2023-04-02T06:14:48.503Z,1.08
2023-04-02T06:17:17.954Z,0.80
2023-04-02T06:19:48.541Z,0.90
2023-04-02T06:22:28.558Z,0.60
2023-04-02T06:25:02.748Z,1.10
2023-04-02T06:27:31.206Z,0.73
2023-04-02T06:30:03.592Z,1.00
2023-04-02T06:32:31.796Z,0.60
2023-04-02T06:35:01.241Z,1.02
2023-04-02T06:37:33.213Z,0.70
2023-04-02T06:40:06.066Z,0.90
2023-04-02T06:42:36.877Z,0.68
2023-04-02T14:02:35.648Z,1.33
2023-04-02T14:05:15.788Z,0.90
2023-04-02T14:07:56.526Z,1.50
2023-04-02T14:10:34.808Z,1.40
2023-04-02T14:13:21.055Z,1.90
2023-04-02T14:16:08.846Z,1.25
2023-04-02T14:18:55.511Z,4.13
2023-04-02T14:21:33.463Z,3.20
2023-04-02T14:24:17.778Z,1.60
2023-04-02T14:27:03.014Z,2.88
2023-04-02T14:29:39.088Z,1.20
2023-04-02T14:32:10.766Z,1.40
2023-04-02T14:34:48.510Z,2.35
2023-04-02T14:37:24.116Z,1.38
2023-04-02T14:40:01.097Z,2.25
2023-04-02T14:42:33.638Z,2.50
2023-04-02T14:45:05.844Z,3.30
2023-04-02T14:47:39.463Z,1.55
2023-04-02T14:50:14.786Z,1.83
2023-04-02T14:52:46.088Z,1.90
2023-04-02T14:55:20.676Z,2.70
2023-04-02T14:57:53.621Z,1.40
2023-04-02T15:00:31.772Z,1.92
2023-04-02T15:03:07.122Z,1.50
2023-04-02T15:05:42.193Z,8.40
2023-04-02T15:08:20.880Z,2.33
2023-04-02T15:11:05.708Z,4.38
2023-04-02T15:13:41.889Z,1.30
2023-04-02T15:16:14.400Z,2.10
2023-04-02T15:18:42.516Z,1.30
2023-04-02T15:21:57.494Z,3.00
2023-04-02T15:24:38.000Z,0.90
2023-04-02T15:27:24.589Z,0.80
2023-04-02T15:30:00.792Z,0.60
2023-04-02T15:32:37.802Z,0.80
2023-04-02T15:35:18.944Z,1.00
2023-04-02T15:37:58.485Z,0.63
2023-04-02T15:40:51.601Z,0.60
2023-04-02T15:43:24.410Z,0.95
2023-04-02T15:46:02.486Z,1.00
2023-04-02T15:49:02.779Z,1.00
2023-04-02T15:51:46.394Z,2.50
2023-04-02T15:54:31.632Z,2.35
2023-04-02T15:57:14.163Z,2.10
2023-04-02T16:00:04.139Z,1.27
2023-04-02T16:03:17.308Z,3.55
2023-04-02T16:05:55.867Z,2.65
2023-04-02T16:08:44.958Z,2.67
2023-04-02T16:11:16.653Z,1.85
2023-04-02T16:13:44.900Z,1.92
2023-04-02T16:16:19.039Z,2.38
2023-04-02T16:18:54.675Z,2.60
2023-04-02T16:21:25.680Z,3.20
2023-04-02T16:23:55.071Z,2.72
2023-04-02T16:26:37.580Z,2.90
2023-04-02T16:29:23.733Z,2.50
2023-04-02T16:31:57.036Z,2.47
2023-04-02T16:34:38.254Z,2.38
2023-04-02T16:37:13.215Z,2.50
2023-04-02T16:39:46.043Z,3.00
2023-04-02T16:42:29.122Z,2.35
2023-04-02T16:45:09.302Z,2.45
2023-04-02T16:48:01.788Z,3.70
2023-04-02T16:50:40.968Z,3.92
2023-04-02T16:53:21.061Z,3.20
2023-04-02T16:56:16.798Z,5.20
2023-04-02T16:58:54.026Z,2.40
2023-04-02T17:01:28.080Z,2.65
2023-04-02T17:04:08.939Z,2.60
2023-04-02T17:06:43.358Z,2.75
2023-04-02T17:09:23.637Z,2.60
2023-04-02T17:11:56.037Z,2.38
2023-04-02T17:14:32.062Z,2.83
2023-04-02T17:17:02.915Z,2.80
2023-04-02T17:19:33.665Z,2.50
2023-04-02T17:22:03.957Z,2.90
2023-04-02T17:24:38.089Z,3.38
2023-04-02T17:27:12.463Z,6.05
2023-04-02T17:29:45.284Z,3.20
2023-04-02T17:32:18.876Z,2.67
2023-04-02T17:34:46.815Z,3.33
2023-04-02T17:37:26.318Z,3.60
2023-04-02T17:40:03.608Z,4.65
2023-04-02T17:42:46.183Z,4.88
2023-04-02T17:45:20.904Z,4.93
2023-04-02T17:47:58.916Z,3.08
2023-04-02T17:50:50.373Z,2.90
2023-04-02T17:53:38.724Z,3.65
2023-04-02T17:56:19.310Z,4.32
2023-04-02T17:59:04.359Z,4.28
2023-04-02T18:01:41.354Z,3.80
2023-04-02T18:04:18.207Z,4.30
2023-04-02T18:06:57.117Z,4.07
2023-04-02T18:09:39.773Z,3.85
2023-04-02T18:12:22.076Z,3.28
2023-04-02T18:15:03.769Z,3.30
2023-04-02T18:17:42.032Z,6.13
2023-04-02T18:20:19.080Z,3.60
2023-04-02T18:22:54.818Z,4.00
2023-04-02T18:25:44.212Z,3.33
2023-04-02T18:28:23.150Z,3.85
2023-04-02T18:30:58.810Z,4.00
2023-04-02T18:33:56.142Z,4.00
2023-04-02T18:36:28.847Z,3.50
2023-04-02T18:39:03.526Z,4.20
2023-04-02T18:41:47.032Z,4.20
2023-04-02T18:44:33.139Z,5.10
2023-04-02T18:47:10.087Z,4.75
2023-04-02T18:49:42.483Z,4.78
2023-04-02T18:52:14.094Z,4.82
2023-04-02T18:54:46.078Z,4.88
2023-04-02T18:57:19.433Z,5.05
2023-04-02T18:59:52.267Z,4.68
2023-04-02T19:02:40.633Z,5.47
2023-04-02T19:05:21.367Z,6.03
2023-04-02T19:07:53.009Z,5.68
2023-04-02T19:10:30.250Z,5.78
2023-04-02T19:12:58.388Z,5.10
2023-04-02T19:15:37.512Z,5.45
2023-04-02T19:18:16.846Z,5.93
2023-04-02T19:20:54.991Z,5.20
2023-04-02T19:23:37.800Z,5.00
2023-04-02T19:26:08.749Z,5.25
2023-04-02T19:28:43.370Z,5.22
2023-04-02T19:31:22.412Z,5.40
2023-04-02T19:33:53.568Z,5.53
2023-04-02T19:36:47.722Z,5.90
2023-04-02T19:39:53.025Z,5.70
2023-04-02T19:42:35.113Z,6.65
2023-04-02T19:45:03.946Z,5.60
2023-04-02T19:47:32.089Z,6.75
2023-04-02T19:50:00.392Z,6.55
2023-04-02T19:52:29.825Z,6.80
2023-04-02T19:54:57.874Z,6.43
2023-04-02T19:57:25.971Z,6.97
2023-04-02T19:59:54.021Z,6.60
